sensor_id;sensor_type;location;lat;lon;timestamp;pressure;altitude;pressure_sealevel;temperature;humidity
58072;BME280;60383;46.626;18.866;2023-04-07T00:02:24;100288.06;;;4.43;69.85
58072;BME280;60383;46.626;18.866;2023-04-07T00:04:51;100276.72;;;4.38;69.65
58072;BME280;60383;46.626;18.866;2023-04-07T00:07:16;100291.16;;;4.39;70.25
58072;BME280;60383;46.626;18.866;2023-04-07T00:09:42;100280.69;;;4.34;70.13
58072;BME280;60383;46.626;18.866;2023-04-07T00:12:07;100278.84;;;4.57;69.54
58072;BME280;60383;46.626;18.866;2023-04-07T00:14:33;100285.50;;;4.42;69.75
58072;BME280;60383;46.626;18.866;2023-04-07T00:16:58;100279.97;;;4.55;68.51
58072;BME280;60383;46.626;18.866;2023-04-07T00:19:24;100283.25;;;4.36;69.35
58072;BME280;60383;46.626;18.866;2023-04-07T00:21:49;100276.88;;;4.48;68.49
58072;BME280;60383;46.626;18.866;2023-04-07T00:24:15;100276.09;;;4.35;69.10
58072;BME280;60383;46.626;18.866;2023-04-07T00:26:41;100274.16;;;4.37;68.61
58072;BME280;60383;46.626;18.866;2023-04-07T00:29:06;100274.63;;;4.30;68.97
58072;BME280;60383;46.626;18.866;2023-04-07T00:31:32;100271.56;;;4.35;68.33
58072;BME280;60383;46.626;18.866;2023-04-07T00:33:57;100273.44;;;4.46;68.48
58072;BME280;60383;46.626;18.866;2023-04-07T00:36:23;100271.09;;;4.41;68.83
58072;BME280;60383;46.626;18.866;2023-04-07T00:38:48;100273.25;;;4.36;68.63
58072;BME280;60383;46.626;18.866;2023-04-07T00:41:14;100272.53;;;4.34;69.11
58072;BME280;60383;46.626;18.866;2023-04-07T00:43:39;100269.34;;;4.52;68.75
58072;BME280;60383;46.626;18.866;2023-04-07T00:46:05;100268.75;;;4.59;68.43
58072;BME280;60383;46.626;18.866;2023-04-07T00:48:31;100268.00;;;4.69;67.87
58072;BME280;60383;46.626;18.866;2023-04-07T00:50:57;100271.81;;;4.77;67.10
58072;BME280;60383;46.626;18.866;2023-04-07T00:53:22;100266.00;;;4.82;66.76
58072;BME280;60383;46.626;18.866;2023-04-07T00:55:48;100269.63;;;4.83;66.93
58072;BME280;60383;46.626;18.866;2023-04-07T00:58:14;100269.47;;;4.84;67.10
58072;BME280;60383;46.626;18.866;2023-04-07T01:01:03;100270.47;;;4.83;66.93
58072;BME280;60383;46.626;18.866;2023-04-07T01:03:48;100267.88;;;4.82;67.74
58072;BME280;60383;46.626;18.866;2023-04-07T01:06:19;100263.81;;;4.76;67.53
58072;BME280;60383;46.626;18.866;2023-04-07T01:09:06;100258.75;;;4.60;67.71
58072;BME280;60383;46.626;18.866;2023-04-07T01:14:45;100252.09;;;4.75;67.68
58072;BME280;60383;46.626;18.866;2023-04-07T01:17:13;100259.88;;;4.80;67.09
58072;BME280;60383;46.626;18.866;2023-04-07T01:19:42;100248.13;;;4.91;67.22
58072;BME280;60383;46.626;18.866;2023-04-07T01:22:14;100252.22;;;4.85;67.00
58072;BME280;60383;46.626;18.866;2023-04-07T01:30:28;100248.50;;;4.86;66.44
58072;BME280;60383;46.626;18.866;2023-04-07T01:32:54;100247.03;;;4.82;66.41
58072;BME280;60383;46.626;18.866;2023-04-07T01:35:22;100242.59;;;4.92;66.17
58072;BME280;60383;46.626;18.866;2023-04-07T01:37:48;100254.94;;;4.85;67.03
58072;BME280;60383;46.626;18.866;2023-04-07T01:40:15;100239.41;;;4.87;66.86
58072;BME280;60383;46.626;18.866;2023-04-07T01:42:43;100237.78;;;4.96;65.61
58072;BME280;60383;46.626;18.866;2023-04-07T01:45:10;100241.56;;;5.05;64.96
58072;BME280;60383;46.626;18.866;2023-04-07T01:47:36;100248.34;;;4.99;65.55
58072;BME280;60383;46.626;18.866;2023-04-07T01:50:03;100250.31;;;5.08;64.88
58072;BME280;60383;46.626;18.866;2023-04-07T01:52:31;100248.25;;;4.89;65.33
58072;BME280;60383;46.626;18.866;2023-04-07T01:54:57;100248.50;;;4.75;66.15
58072;BME280;60383;46.626;18.866;2023-04-07T01:57:22;100241.97;;;4.77;66.65
58072;BME280;60383;46.626;18.866;2023-04-07T01:59:48;100239.09;;;5.02;65.37
58072;BME280;60383;46.626;18.866;2023-04-07T02:02:13;100231.84;;;4.79;65.36
58072;BME280;60383;46.626;18.866;2023-04-07T02:04:54;100233.81;;;4.77;65.70
58072;BME280;60383;46.626;18.866;2023-04-07T02:07:27;100247.78;;;4.84;66.25
58072;BME280;60383;46.626;18.866;2023-04-07T02:09:57;100236.31;;;4.80;65.31
58072;BME280;60383;46.626;18.866;2023-04-07T02:12:25;100233.22;;;4.85;64.75
58072;BME280;60383;46.626;18.866;2023-04-07T02:14:53;100236.69;;;4.87;64.67
58072;BME280;60383;46.626;18.866;2023-04-07T02:17:20;100234.19;;;4.84;65.18
58072;BME280;60383;46.626;18.866;2023-04-07T02:19:48;100235.06;;;4.85;64.65
58072;BME280;60383;46.626;18.866;2023-04-07T02:22:15;100242.47;;;4.71;65.61
58072;BME280;60383;46.626;18.866;2023-04-07T02:24:41;100239.88;;;4.81;65.92
58072;BME280;60383;46.626;18.866;2023-04-07T02:27:09;100226.66;;;4.88;65.27
58072;BME280;60383;46.626;18.866;2023-04-07T02:29:35;100228.53;;;4.87;64.80
58072;BME280;60383;46.626;18.866;2023-04-07T02:32:01;100228.41;;;4.89;65.11
58072;BME280;60383;46.626;18.866;2023-04-07T02:34:26;100226.78;;;4.98;64.32
58072;BME280;60383;46.626;18.866;2023-04-07T02:36:52;100225.78;;;4.99;64.17
58072;BME280;60383;46.626;18.866;2023-04-07T02:39:17;100223.09;;;4.99;64.74
58072;BME280;60383;46.626;18.866;2023-04-07T02:41:42;100230.50;;;4.74;64.88
58072;BME280;60383;46.626;18.866;2023-04-07T02:44:08;100223.84;;;4.78;64.54
58072;BME280;60383;46.626;18.866;2023-04-07T02:46:33;100232.25;;;4.86;64.02
58072;BME280;60383;46.626;18.866;2023-04-07T02:48:59;100220.88;;;4.81;64.66
58072;BME280;60383;46.626;18.866;2023-04-07T02:51:25;100220.25;;;4.77;65.59
58072;BME280;60383;46.626;18.866;2023-04-07T02:53:51;100229.63;;;4.85;64.46
58072;BME280;60383;46.626;18.866;2023-04-07T02:56:16;100233.81;;;4.77;65.11
58072;BME280;60383;46.626;18.866;2023-04-07T02:58:42;100219.53;;;4.75;66.07
58072;BME280;60383;46.626;18.866;2023-04-07T03:01:07;100218.78;;;4.73;65.91
58072;BME280;60383;46.626;18.866;2023-04-07T03:03:33;100222.34;;;4.74;66.53
58072;BME280;60383;46.626;18.866;2023-04-07T03:05:58;100226.44;;;4.68;66.39
58072;BME280;60383;46.626;18.866;2023-04-07T03:08:24;100228.19;;;4.69;65.77
58072;BME280;60383;46.626;18.866;2023-04-07T03:10:49;100222.00;;;4.67;65.53
58072;BME280;60383;46.626;18.866;2023-04-07T03:13:15;100225.97;;;4.63;65.45
58072;BME280;60383;46.626;18.866;2023-04-07T03:15:43;100221.25;;;4.65;66.11
58072;BME280;60383;46.626;18.866;2023-04-07T03:18:09;100225.56;;;4.68;65.70
58072;BME280;60383;46.626;18.866;2023-04-07T03:20:36;100229.53;;;4.63;65.84
58072;BME280;60383;46.626;18.866;2023-04-07T03:23:02;100226.31;;;4.70;66.20
58072;BME280;60383;46.626;18.866;2023-04-07T03:25:27;100222.22;;;4.87;65.41
58072;BME280;60383;46.626;18.866;2023-04-07T03:27:53;100220.03;;;4.80;65.09
58072;BME280;60383;46.626;18.866;2023-04-07T03:30:19;100225.31;;;4.82;66.29
58072;BME280;60383;46.626;18.866;2023-04-07T03:32:44;100230.50;;;4.62;66.29
58072;BME280;60383;46.626;18.866;2023-04-07T03:35:10;100236.19;;;4.59;67.83
58072;BME280;60383;46.626;18.866;2023-04-07T03:37:36;100239.63;;;4.61;69.11
58072;BME280;60383;46.626;18.866;2023-04-07T03:40:01;100242.22;;;4.74;67.82
58072;BME280;60383;46.626;18.866;2023-04-07T03:42:27;100244.31;;;4.48;70.39
58072;BME280;60383;46.626;18.866;2023-04-07T03:44:52;100240.41;;;4.52;71.62
58072;BME280;60383;46.626;18.866;2023-04-07T03:47:18;100249.75;;;4.37;72.97
58072;BME280;60383;46.626;18.866;2023-04-07T03:49:43;100249.47;;;4.17;74.01
58072;BME280;60383;46.626;18.866;2023-04-07T03:52:09;100250.31;;;4.06;75.43
58072;BME280;60383;46.626;18.866;2023-04-07T03:54:34;100250.06;;;4.09;77.25
58072;BME280;60383;46.626;18.866;2023-04-07T03:57:00;100241.63;;;3.90;77.25
58072;BME280;60383;46.626;18.866;2023-04-07T03:59:26;100251.78;;;3.99;77.78
58072;BME280;60383;46.626;18.866;2023-04-07T04:01:52;100257.13;;;3.76;77.78
58072;BME280;60383;46.626;18.866;2023-04-07T04:04:17;100254.03;;;3.70;78.54
58072;BME280;60383;46.626;18.866;2023-04-07T04:06:43;100253.91;;;3.47;80.05
58072;BME280;60383;46.626;18.866;2023-04-07T04:09:08;100249.81;;;3.41;81.24
58072;BME280;60383;46.626;18.866;2023-04-07T04:11:34;100254.75;;;3.72;80.25
58072;BME280;60383;46.626;18.866;2023-04-07T04:14:00;100255.28;;;3.77;79.81
58072;BME280;60383;46.626;18.866;2023-04-07T04:16:26;100248.97;;;3.41;80.84
58072;BME280;60383;46.626;18.866;2023-04-07T04:18:51;100250.00;;;3.51;81.78
58072;BME280;60383;46.626;18.866;2023-04-07T04:21:17;100251.50;;;3.55;80.78
58072;BME280;60383;46.626;18.866;2023-04-07T04:23:42;100257.66;;;3.57;81.55
58072;BME280;60383;46.626;18.866;2023-04-07T04:26:08;100246.44;;;3.50;81.52
58072;BME280;60383;46.626;18.866;2023-04-07T04:28:33;100252.78;;;3.62;81.76
58072;BME280;60383;46.626;18.866;2023-04-07T04:30:59;100258.38;;;3.48;81.32
58072;BME280;60383;46.626;18.866;2023-04-07T04:33:24;100259.78;;;3.65;81.73
58072;BME280;60383;46.626;18.866;2023-04-07T04:35:50;100267.16;;;3.63;81.25
58072;BME280;60383;46.626;18.866;2023-04-07T04:38:15;100261.34;;;3.80;81.65
58072;BME280;60383;46.626;18.866;2023-04-07T04:40:41;100265.56;;;3.60;81.99
58072;BME280;60383;46.626;18.866;2023-04-07T04:43:06;100251.78;;;3.63;83.23
58072;BME280;60383;46.626;18.866;2023-04-07T04:45:33;100258.47;;;3.71;81.83
58072;BME280;60383;46.626;18.866;2023-04-07T04:47:59;100266.31;;;3.62;81.60
58072;BME280;60383;46.626;18.866;2023-04-07T04:50:25;100262.88;;;3.72;81.81
58072;BME280;60383;46.626;18.866;2023-04-07T04:52:50;100269.66;;;3.66;82.18
58072;BME280;60383;46.626;18.866;2023-04-07T04:55:16;100267.75;;;3.55;83.11
58072;BME280;60383;46.626;18.866;2023-04-07T04:57:41;100270.38;;;3.44;84.14
58072;BME280;60383;46.626;18.866;2023-04-07T05:00:07;100276.06;;;3.76;82.70
58072;BME280;60383;46.626;18.866;2023-04-07T05:02:35;100270.16;;;3.47;83.57
58072;BME280;60383;46.626;18.866;2023-04-07T05:05:00;100273.97;;;3.68;82.85
58072;BME280;60383;46.626;18.866;2023-04-07T05:07:26;100283.59;;;3.48;83.63
58072;BME280;60383;46.626;18.866;2023-04-07T05:09:51;100280.81;;;3.61;84.37
58072;BME280;60383;46.626;18.866;2023-04-07T05:12:17;100283.88;;;3.32;84.53
58072;BME280;60383;46.626;18.866;2023-04-07T05:14:42;100278.59;;;3.55;84.32
58072;BME280;60383;46.626;18.866;2023-04-07T05:17:07;100282.47;;;3.51;84.69
58072;BME280;60383;46.626;18.866;2023-04-07T05:19:34;100286.00;;;3.64;84.94
58072;BME280;60383;46.626;18.866;2023-04-07T05:21:59;100282.59;;;3.49;84.82
58072;BME280;60383;46.626;18.866;2023-04-07T05:24:27;100280.56;;;3.64;84.80
58072;BME280;60383;46.626;18.866;2023-04-07T05:26:52;100286.41;;;3.71;83.85
58072;BME280;60383;46.626;18.866;2023-04-07T05:29:18;100291.94;;;3.70;83.87
58072;BME280;60383;46.626;18.866;2023-04-07T05:31:44;100291.22;;;3.79;83.60
58072;BME280;60383;46.626;18.866;2023-04-07T05:34:09;100294.47;;;3.84;83.13
58072;BME280;60383;46.626;18.866;2023-04-07T05:36:35;100290.91;;;3.95;82.27
58072;BME280;60383;46.626;18.866;2023-04-07T05:39:00;100299.72;;;4.10;82.10
58072;BME280;60383;46.626;18.866;2023-04-07T05:41:26;100299.09;;;4.06;81.32
58072;BME280;60383;46.626;18.866;2023-04-07T05:43:51;100290.34;;;4.03;82.25
58072;BME280;60383;46.626;18.866;2023-04-07T05:46:16;100295.13;;;3.99;82.78
58072;BME280;60383;46.626;18.866;2023-04-07T05:48:42;100296.03;;;4.11;82.22
58072;BME280;60383;46.626;18.866;2023-04-07T05:51:07;100291.75;;;4.20;81.84
58072;BME280;60383;46.626;18.866;2023-04-07T05:53:33;100293.63;;;4.30;81.36
58072;BME280;60383;46.626;18.866;2023-04-07T05:55:58;100299.09;;;4.06;81.52
58072;BME280;60383;46.626;18.866;2023-04-07T05:58:24;100302.66;;;4.07;82.28
58072;BME280;60383;46.626;18.866;2023-04-07T06:00:50;100302.44;;;4.10;82.18
58072;BME280;60383;46.626;18.866;2023-04-07T06:03:15;100303.34;;;4.22;81.92
58072;BME280;60383;46.626;18.866;2023-04-07T06:05:41;100301.19;;;4.14;82.50
58072;BME280;60383;46.626;18.866;2023-04-07T06:08:10;100306.75;;;4.12;82.51
58072;BME280;60383;46.626;18.866;2023-04-07T06:10:36;100311.91;;;4.04;84.02
58072;BME280;60383;46.626;18.866;2023-04-07T06:13:01;100300.56;;;3.99;84.16
58072;BME280;60383;46.626;18.866;2023-04-07T06:15:26;100322.31;;;4.22;83.65
58072;BME280;60383;46.626;18.866;2023-04-07T06:17:52;100312.69;;;4.18;84.31
58072;BME280;60383;46.626;18.866;2023-04-07T06:20:17;100311.09;;;4.26;82.97
58072;BME280;60383;46.626;18.866;2023-04-07T06:22:46;100312.34;;;4.34;82.54
58072;BME280;60383;46.626;18.866;2023-04-07T06:25:11;100301.88;;;4.40;82.33
58072;BME280;60383;46.626;18.866;2023-04-07T06:27:37;100303.84;;;4.27;83.73
58072;BME280;60383;46.626;18.866;2023-04-07T06:30:03;100297.09;;;4.44;83.11
58072;BME280;60383;46.626;18.866;2023-04-07T06:32:28;100305.09;;;4.45;83.23
58072;BME280;60383;46.626;18.866;2023-04-07T06:34:54;100297.03;;;4.32;84.15
58072;BME280;60383;46.626;18.866;2023-04-07T06:37:20;100305.84;;;4.59;82.68
58072;BME280;60383;46.626;18.866;2023-04-07T06:39:48;100298.06;;;4.54;81.81
58072;BME280;60383;46.626;18.866;2023-04-07T06:42:14;100298.59;;;4.71;82.93
58072;BME280;60383;46.626;18.866;2023-04-07T06:44:39;100300.69;;;4.78;82.36
58072;BME280;60383;46.626;18.866;2023-04-07T06:47:05;100298.72;;;4.80;81.32
58072;BME280;60383;46.626;18.866;2023-04-07T06:49:30;100305.88;;;4.82;82.99
58072;BME280;60383;46.626;18.866;2023-04-07T06:51:56;100296.75;;;4.83;81.64
58072;BME280;60383;46.626;18.866;2023-04-07T06:54:21;100306.84;;;5.03;80.26
58072;BME280;60383;46.626;18.866;2023-04-07T06:56:47;100300.91;;;4.98;81.59
58072;BME280;60383;46.626;18.866;2023-04-07T06:59:12;100301.66;;;5.00;82.12
58072;BME280;60383;46.626;18.866;2023-04-07T07:01:39;100307.19;;;5.10;81.46
58072;BME280;60383;46.626;18.866;2023-04-07T07:04:06;100309.06;;;5.09;82.05
58072;BME280;60383;46.626;18.866;2023-04-07T07:06:31;100315.72;;;5.17;81.22
58072;BME280;60383;46.626;18.866;2023-04-07T07:08:57;100316.56;;;5.17;79.61
58072;BME280;60383;46.626;18.866;2023-04-07T07:11:24;100315.47;;;5.31;79.82
58072;BME280;60383;46.626;18.866;2023-04-07T07:13:50;100315.47;;;5.20;79.86
58072;BME280;60383;46.626;18.866;2023-04-07T07:16:15;100307.31;;;5.31;78.77
58072;BME280;60383;46.626;18.866;2023-04-07T07:18:40;100311.84;;;5.42;77.96
58072;BME280;60383;46.626;18.866;2023-04-07T07:21:07;100315.19;;;5.46;77.62
58072;BME280;60383;46.626;18.866;2023-04-07T07:23:32;100314.44;;;5.43;79.28
58072;BME280;60383;46.626;18.866;2023-04-07T07:25:59;100316.97;;;5.01;79.94
58072;BME280;60383;46.626;18.866;2023-04-07T07:28:24;100312.47;;;5.34;79.33
58072;BME280;60383;46.626;18.866;2023-04-07T07:30:50;100313.94;;;5.50;76.67
58072;BME280;60383;46.626;18.866;2023-04-07T07:33:16;100320.25;;;5.39;77.29
58072;BME280;60383;46.626;18.866;2023-04-07T07:35:41;100316.50;;;5.51;75.37
58072;BME280;60383;46.626;18.866;2023-04-07T07:38:07;100317.38;;;5.52;75.70
58072;BME280;60383;46.626;18.866;2023-04-07T07:40:32;100327.66;;;5.48;77.05
58072;BME280;60383;46.626;18.866;2023-04-07T07:42:59;100321.88;;;5.19;78.33
58072;BME280;60383;46.626;18.866;2023-04-07T07:45:25;100326.06;;;5.46;77.58
58072;BME280;60383;46.626;18.866;2023-04-07T07:47:50;100328.50;;;5.49;76.46
58072;BME280;60383;46.626;18.866;2023-04-07T07:50:16;100332.06;;;5.60;75.38
58072;BME280;60383;46.626;18.866;2023-04-07T07:52:41;100338.63;;;5.47;77.25
58072;BME280;60383;46.626;18.866;2023-04-07T07:55:07;100335.06;;;5.46;77.27
58072;BME280;60383;46.626;18.866;2023-04-07T07:57:33;100341.84;;;5.52;76.87
58072;BME280;60383;46.626;18.866;2023-04-07T07:59:59;100342.75;;;5.73;75.84
58072;BME280;60383;46.626;18.866;2023-04-07T08:02:24;100347.97;;;5.65;76.00
58072;BME280;60383;46.626;18.866;2023-04-07T08:04:55;100353.03;;;5.58;76.80
58072;BME280;60383;46.626;18.866;2023-04-07T08:07:21;100350.00;;;5.84;77.47
58072;BME280;60383;46.626;18.866;2023-04-07T08:09:46;100352.63;;;5.74;75.04
58072;BME280;60383;46.626;18.866;2023-04-07T08:12:12;100346.06;;;5.77;75.50
58072;BME280;60383;46.626;18.866;2023-04-07T08:14:38;100348.16;;;5.85;75.43
58072;BME280;60383;46.626;18.866;2023-04-07T08:17:03;100347.28;;;5.84;74.12
58072;BME280;60383;46.626;18.866;2023-04-07T08:19:29;100356.22;;;5.64;74.34
58072;BME280;60383;46.626;18.866;2023-04-07T08:21:54;100360.38;;;5.35;76.35
58072;BME280;60383;46.626;18.866;2023-04-07T08:24:20;100349.84;;;5.53;74.32
58072;BME280;60383;46.626;18.866;2023-04-07T08:26:45;100358.88;;;5.42;75.45
58072;BME280;60383;46.626;18.866;2023-04-07T08:29:11;100360.09;;;5.50;75.58
58072;BME280;60383;46.626;18.866;2023-04-07T08:31:36;100360.22;;;5.59;75.02
58072;BME280;60383;46.626;18.866;2023-04-07T08:34:02;100368.59;;;5.56;74.24
58072;BME280;60383;46.626;18.866;2023-04-07T08:36:27;100364.94;;;5.46;75.43
58072;BME280;60383;46.626;18.866;2023-04-07T08:38:54;100371.81;;;5.50;74.84
58072;BME280;60383;46.626;18.866;2023-04-07T08:41:39;100371.31;;;5.56;74.53
58072;BME280;60383;46.626;18.866;2023-04-07T08:44:09;100372.81;;;5.60;74.60
58072;BME280;60383;46.626;18.866;2023-04-07T08:46:37;100374.53;;;5.50;74.46
58072;BME280;60383;46.626;18.866;2023-04-07T08:49:07;100372.72;;;5.28;75.61
58072;BME280;60383;46.626;18.866;2023-04-07T08:51:34;100373.72;;;5.27;76.01
58072;BME280;60383;46.626;18.866;2023-04-07T08:54:13;100373.31;;;5.43;77.88
58072;BME280;60383;46.626;18.866;2023-04-07T08:56:40;100376.03;;;5.43;77.48
58072;BME280;60383;46.626;18.866;2023-04-07T08:59:07;100374.44;;;5.52;77.58
58072;BME280;60383;46.626;18.866;2023-04-07T09:01:34;100376.66;;;5.47;77.19
58072;BME280;60383;46.626;18.866;2023-04-07T09:04:01;100375.41;;;5.39;78.31
58072;BME280;60383;46.626;18.866;2023-04-07T09:06:29;100372.09;;;5.36;78.41
58072;BME280;60383;46.626;18.866;2023-04-07T09:09:02;100368.38;;;5.37;79.61
58072;BME280;60383;46.626;18.866;2023-04-07T09:11:35;100367.94;;;5.75;77.08
58072;BME280;60383;46.626;18.866;2023-04-07T09:14:00;100380.38;;;5.46;77.96
58072;BME280;60383;46.626;18.866;2023-04-07T09:16:28;100371.84;;;5.39;78.69
58072;BME280;60383;46.626;18.866;2023-04-07T09:18:55;100379.63;;;5.21;78.72
58072;BME280;60383;46.626;18.866;2023-04-07T09:21:20;100384.09;;;5.44;78.61
58072;BME280;60383;46.626;18.866;2023-04-07T09:23:46;100380.97;;;5.49;77.94
58072;BME280;60383;46.626;18.866;2023-04-07T09:26:24;100383.31;;;5.54;78.98
58072;BME280;60383;46.626;18.866;2023-04-07T09:28:53;100382.94;;;5.58;79.21
58072;BME280;60383;46.626;18.866;2023-04-07T09:31:22;100386.69;;;5.35;79.65
58072;BME280;60383;46.626;18.866;2023-04-07T09:33:50;100389.25;;;5.48;80.08
58072;BME280;60383;46.626;18.866;2023-04-07T09:36:17;100381.47;;;5.54;80.78
58072;BME280;60383;46.626;18.866;2023-04-07T09:38:43;100393.72;;;5.37;81.73
58072;BME280;60383;46.626;18.866;2023-04-07T09:41:16;100394.69;;;5.36;82.59
58072;BME280;60383;46.626;18.866;2023-04-07T09:43:43;100390.25;;;5.35;82.08
58072;BME280;60383;46.626;18.866;2023-04-07T09:46:18;100384.25;;;5.75;81.83
58072;BME280;60383;46.626;18.866;2023-04-07T09:48:45;100390.44;;;5.78;80.65
58072;BME280;60383;46.626;18.866;2023-04-07T09:51:15;100394.28;;;5.75;80.59
58072;BME280;60383;46.626;18.866;2023-04-07T09:53:44;100396.75;;;5.67;80.29
58072;BME280;60383;46.626;18.866;2023-04-07T09:56:12;100387.72;;;5.78;79.42
58072;BME280;60383;46.626;18.866;2023-04-07T09:58:38;100388.69;;;5.76;80.01
58072;BME280;60383;46.626;18.866;2023-04-07T10:01:08;100392.41;;;5.87;79.77
58072;BME280;60383;46.626;18.866;2023-04-07T10:03:35;100389.63;;;6.10;77.19
58072;BME280;60383;46.626;18.866;2023-04-07T10:06:01;100400.09;;;5.70;79.06
58072;BME280;60383;46.626;18.866;2023-04-07T10:08:28;100397.09;;;5.85;79.81
58072;BME280;60383;46.626;18.866;2023-04-07T10:10:54;100399.94;;;5.72;79.32
58072;BME280;60383;46.626;18.866;2023-04-07T10:13:20;100398.72;;;5.65;78.96
58072;BME280;60383;46.626;18.866;2023-04-07T10:15:46;100402.09;;;5.57;80.30
58072;BME280;60383;46.626;18.866;2023-04-07T10:18:13;100401.34;;;5.66;81.32
58072;BME280;60383;46.626;18.866;2023-04-07T10:20:39;100402.94;;;5.69;81.73
58072;BME280;60383;46.626;18.866;2023-04-07T10:23:16;100407.72;;;5.76;81.46
58072;BME280;60383;46.626;18.866;2023-04-07T10:25:44;100403.03;;;5.67;82.17
58072;BME280;60383;46.626;18.866;2023-04-07T10:28:12;100408.09;;;5.72;81.82
58072;BME280;60383;46.626;18.866;2023-04-07T10:30:39;100411.09;;;5.46;82.39
58072;BME280;60383;46.626;18.866;2023-04-07T10:33:05;100408.09;;;5.72;83.82
58072;BME280;60383;46.626;18.866;2023-04-07T10:36:02;100406.25;;;5.72;82.35
58072;BME280;60383;46.626;18.866;2023-04-07T10:38:29;100405.84;;;6.00;81.34
58072;BME280;60383;46.626;18.866;2023-04-07T10:40:56;100411.28;;;6.00;80.39
58072;BME280;60383;46.626;18.866;2023-04-07T10:43:50;100407.56;;;6.01;82.88
58072;BME280;60383;46.626;18.866;2023-04-07T10:46:16;100401.16;;;6.34;80.79
58072;BME280;60383;46.626;18.866;2023-04-07T10:48:42;100406.53;;;6.13;79.52
58072;BME280;60383;46.626;18.866;2023-04-07T10:51:12;100405.16;;;6.19;80.57
58072;BME280;60383;46.626;18.866;2023-04-07T10:54:13;100400.84;;;6.16;80.80
58072;BME280;60383;46.626;18.866;2023-04-07T10:59:27;100400.88;;;5.94;83.71
58072;BME280;60383;46.626;18.866;2023-04-07T11:04:47;100405.78;;;6.11;80.87
58072;BME280;60383;46.626;18.866;2023-04-07T11:07:13;100398.44;;;6.02;84.22
58072;BME280;60383;46.626;18.866;2023-04-07T11:09:39;100400.47;;;6.42;80.17
58072;BME280;60383;46.626;18.866;2023-04-07T11:12:05;100405.41;;;6.48;79.61
58072;BME280;60383;46.626;18.866;2023-04-07T11:14:32;100397.59;;;6.55;79.57
58072;BME280;60383;46.626;18.866;2023-04-07T11:16:58;100400.22;;;6.66;78.90
58072;BME280;60383;46.626;18.866;2023-04-07T11:19:25;100396.44;;;6.79;78.21
58072;BME280;60383;46.626;18.866;2023-04-07T11:22:14;100387.81;;;6.74;78.99
58072;BME280;60383;46.626;18.866;2023-04-07T11:24:40;100392.00;;;6.78;77.47
58072;BME280;60383;46.626;18.866;2023-04-07T11:27:11;100396.25;;;6.92;75.66
58072;BME280;60383;46.626;18.866;2023-04-07T11:29:37;100390.78;;;6.92;77.31
58072;BME280;60383;46.626;18.866;2023-04-07T11:32:03;100392.56;;;7.02;76.69
58072;BME280;60383;46.626;18.866;2023-04-07T11:34:30;100390.31;;;6.86;75.36
58072;BME280;60383;46.626;18.866;2023-04-07T11:36:56;100386.44;;;6.79;75.98
58072;BME280;60383;46.626;18.866;2023-04-07T11:39:25;100399.91;;;6.81;75.94
58072;BME280;60383;46.626;18.866;2023-04-07T11:41:58;100396.56;;;6.56;77.21
58072;BME280;60383;46.626;18.866;2023-04-07T11:44:23;100399.28;;;6.56;76.75
58072;BME280;60383;46.626;18.866;2023-04-07T11:49:19;100394.50;;;6.27;79.56
58072;BME280;60383;46.626;18.866;2023-04-07T11:51:45;100395.44;;;6.37;78.76
58072;BME280;60383;46.626;18.866;2023-04-07T11:54:11;100384.41;;;6.39;78.69
58072;BME280;60383;46.626;18.866;2023-04-07T11:56:44;100397.22;;;6.69;78.06
58072;BME280;60383;46.626;18.866;2023-04-07T11:59:36;100386.94;;;6.73;75.49
58072;BME280;60383;46.626;18.866;2023-04-07T12:02:02;100391.06;;;6.67;75.91
58072;BME280;60383;46.626;18.866;2023-04-07T12:04:28;100392.06;;;6.66;74.63
58072;BME280;60383;46.626;18.866;2023-04-07T12:07:06;100393.25;;;6.31;77.12
58072;BME280;60383;46.626;18.866;2023-04-07T12:09:33;100390.81;;;6.49;77.54
58072;BME280;60383;46.626;18.866;2023-04-07T12:12:01;100397.53;;;6.45;76.39
58072;BME280;60383;46.626;18.866;2023-04-07T12:14:27;100394.50;;;6.48;78.27
58072;BME280;60383;46.626;18.866;2023-04-07T12:16:54;100398.16;;;6.37;77.11
58072;BME280;60383;46.626;18.866;2023-04-07T12:19:28;100392.84;;;6.57;76.34
58072;BME280;60383;46.626;18.866;2023-04-07T12:21:54;100399.25;;;6.67;75.99
58072;BME280;60383;46.626;18.866;2023-04-07T12:24:20;100400.03;;;6.58;75.46
58072;BME280;60383;46.626;18.866;2023-04-07T12:26:46;100405.69;;;6.45;76.43
58072;BME280;60383;46.626;18.866;2023-04-07T12:29:12;100404.06;;;6.43;77.84
58072;BME280;60383;46.626;18.866;2023-04-07T12:31:37;100404.19;;;6.41;76.71
58072;BME280;60383;46.626;18.866;2023-04-07T12:34:03;100399.09;;;6.48;76.78
58072;BME280;60383;46.626;18.866;2023-04-07T12:36:28;100415.34;;;6.38;77.22
58072;BME280;60383;46.626;18.866;2023-04-07T12:38:57;100404.97;;;6.32;77.59
58072;BME280;60383;46.626;18.866;2023-04-07T12:41:23;100407.59;;;6.22;78.67
58072;BME280;60383;46.626;18.866;2023-04-07T12:43:49;100411.44;;;6.31;78.63
58072;BME280;60383;46.626;18.866;2023-04-07T12:46:14;100398.22;;;6.26;78.42
58072;BME280;60383;46.626;18.866;2023-04-07T12:48:40;100413.34;;;6.40;77.49
58072;BME280;60383;46.626;18.866;2023-04-07T12:51:06;100414.41;;;6.49;76.31
58072;BME280;60383;46.626;18.866;2023-04-07T12:53:32;100412.34;;;6.08;78.02
58072;BME280;60383;46.626;18.866;2023-04-07T12:55:57;100408.75;;;6.19;78.88
58072;BME280;60383;46.626;18.866;2023-04-07T12:58:23;100414.69;;;6.13;77.70
58072;BME280;60383;46.626;18.866;2023-04-07T13:00:49;100415.06;;;6.20;78.77
58072;BME280;60383;46.626;18.866;2023-04-07T13:03:15;100414.25;;;6.29;77.31
58072;BME280;60383;46.626;18.866;2023-04-07T13:05:40;100412.81;;;6.25;77.69
58072;BME280;60383;46.626;18.866;2023-04-07T13:08:06;100422.59;;;6.16;78.20